sensor_id;sensor_type;location;lat;lon;timestamp;temperature;humidity
44851;DHT22;30583;48.714;9.386;2024-03-02T00:00:57;7.60;79.20
44851;DHT22;30583;48.714;9.386;2024-03-02T00:03:23;7.70;78.70
44851;DHT22;30583;48.714;9.386;2024-03-02T00:05:50;8.20;77.60
44851;DHT22;30583;48.714;9.386;2024-03-02T00:08:23;7.90;77.50
44851;DHT22;30583;48.714;9.386;2024-03-02T00:10:50;8.20;77.20
44851;DHT22;30583;48.714;9.386;2024-03-02T00:13:16;8.40;76.10
44851;DHT22;30583;48.714;9.386;2024-03-02T00:18:35;7.90;77.10
44851;DHT22;30583;48.714;9.386;2024-03-02T00:21:01;7.80;77.20
44851;DHT22;30583;48.714;9.386;2024-03-02T00:23:30;7.80;77.00
44851;DHT22;30583;48.714;9.386;2024-03-02T00:25:56;8.00;77.10
44851;DHT22;30583;48.714;9.386;2024-03-02T00:28:25;8.10;76.60
44851;DHT22;30583;48.714;9.386;2024-03-02T00:33:26;7.90;76.40
44851;DHT22;30583;48.714;9.386;2024-03-02T00:35:53;7.70;77.40
44851;DHT22;30583;48.714;9.386;2024-03-02T00:38:19;8.00;77.10
44851;DHT22;30583;48.714;9.386;2024-03-02T00:40:45;8.20;76.10
44851;DHT22;30583;48.714;9.386;2024-03-02T00:43:45;8.10;76.20
44851;DHT22;30583;48.714;9.386;2024-03-02T00:46:15;8.30;75.80
44851;DHT22;30583;48.714;9.386;2024-03-02T00:48:57;8.20;75.60
44851;DHT22;30583;48.714;9.386;2024-03-02T00:51:25;8.20;75.50
44851;DHT22;30583;48.714;9.386;2024-03-02T00:53:53;8.30;75.40
44851;DHT22;30583;48.714;9.386;2024-03-02T00:56:22;8.20;75.20
44851;DHT22;30583;48.714;9.386;2024-03-02T00:58:48;7.80;76.30
44851;DHT22;30583;48.714;9.386;2024-03-02T01:01:13;8.10;76.10
44851;DHT22;30583;48.714;9.386;2024-03-02T01:03:39;8.20;75.40
44851;DHT22;30583;48.714;9.386;2024-03-02T01:06:06;8.20;75.40
44851;DHT22;30583;48.714;9.386;2024-03-02T01:08:33;8.20;75.30
44851;DHT22;30583;48.714;9.386;2024-03-02T01:10:59;8.10;75.10
44851;DHT22;30583;48.714;9.386;2024-03-02T01:13:24;8.10;75.30
44851;DHT22;30583;48.714;9.386;2024-03-02T01:15:50;8.10;75.50
44851;DHT22;30583;48.714;9.386;2024-03-02T01:18:16;8.10;75.50
44851;DHT22;30583;48.714;9.386;2024-03-02T01:20:41;8.00;75.70
44851;DHT22;30583;48.714;9.386;2024-03-02T01:23:07;7.90;76.10
44851;DHT22;30583;48.714;9.386;2024-03-02T01:25:33;7.70;76.00
44851;DHT22;30583;48.714;9.386;2024-03-02T01:27:58;7.80;76.40
44851;DHT22;30583;48.714;9.386;2024-03-02T01:30:24;7.80;76.50
44851;DHT22;30583;48.714;9.386;2024-03-02T01:32:49;7.90;75.90
44851;DHT22;30583;48.714;9.386;2024-03-02T01:35:15;7.80;76.00
44851;DHT22;30583;48.714;9.386;2024-03-02T01:37:41;8.20;75.40
44851;DHT22;30583;48.714;9.386;2024-03-02T01:40:07;8.00;75.10
44851;DHT22;30583;48.714;9.386;2024-03-02T01:42:38;7.80;75.70
44851;DHT22;30583;48.714;9.386;2024-03-02T01:45:08;7.60;76.40
44851;DHT22;30583;48.714;9.386;2024-03-02T01:47:34;7.60;76.40
44851;DHT22;30583;48.714;9.386;2024-03-02T01:50:00;7.70;76.30
44851;DHT22;30583;48.714;9.386;2024-03-02T01:52:27;7.80;76.00
44851;DHT22;30583;48.714;9.386;2024-03-02T01:54:52;7.60;76.10
44851;DHT22;30583;48.714;9.386;2024-03-02T01:57:18;8.00;75.60
44851;DHT22;30583;48.714;9.386;2024-03-02T01:59:44;7.90;75.50
44851;DHT22;30583;48.714;9.386;2024-03-02T02:02:10;7.90;75.70
44851;DHT22;30583;48.714;9.386;2024-03-02T02:04:36;8.00;75.30
44851;DHT22;30583;48.714;9.386;2024-03-02T02:07:01;8.00;75.10
44851;DHT22;30583;48.714;9.386;2024-03-02T02:09:27;7.90;75.20
44851;DHT22;30583;48.714;9.386;2024-03-02T02:11:52;7.80;75.40
44851;DHT22;30583;48.714;9.386;2024-03-02T02:14:18;7.70;75.80
44851;DHT22;30583;48.714;9.386;2024-03-02T02:16:44;7.50;76.50
44851;DHT22;30583;48.714;9.386;2024-03-02T02:19:09;7.20;76.80
44851;DHT22;30583;48.714;9.386;2024-03-02T02:21:35;7.40;76.90
44851;DHT22;30583;48.714;9.386;2024-03-02T02:24:01;7.50;77.10
44851;DHT22;30583;48.714;9.386;2024-03-02T02:26:29;7.80;76.40
44851;DHT22;30583;48.714;9.386;2024-03-02T02:28:55;7.90;75.60
44851;DHT22;30583;48.714;9.386;2024-03-02T02:31:20;7.80;75.40
44851;DHT22;30583;48.714;9.386;2024-03-02T02:33:46;7.90;75.10
44851;DHT22;30583;48.714;9.386;2024-03-02T02:36:11;7.70;75.50
44851;DHT22;30583;48.714;9.386;2024-03-02T02:38:40;7.70;75.40
44851;DHT22;30583;48.714;9.386;2024-03-02T02:41:08;7.40;75.60
44851;DHT22;30583;48.714;9.386;2024-03-02T02:43:33;7.30;76.30
44851;DHT22;30583;48.714;9.386;2024-03-02T02:45:59;7.60;75.80
44851;DHT22;30583;48.714;9.386;2024-03-02T02:48:24;7.60;75.40
44851;DHT22;30583;48.714;9.386;2024-03-02T02:50:50;7.50;75.60
44851;DHT22;30583;48.714;9.386;2024-03-02T02:53:16;7.20;75.80
44851;DHT22;30583;48.714;9.386;2024-03-02T02:55:42;7.30;76.00
44851;DHT22;30583;48.714;9.386;2024-03-02T02:58:09;7.30;75.90
44851;DHT22;30583;48.714;9.386;2024-03-02T03:00:35;7.40;75.70
44851;DHT22;30583;48.714;9.386;2024-03-02T03:03:02;7.00;76.10
44851;DHT22;30583;48.714;9.386;2024-03-02T03:05:27;7.10;76.50
44851;DHT22;30583;48.714;9.386;2024-03-02T03:07:53;7.00;76.60
44851;DHT22;30583;48.714;9.386;2024-03-02T03:10:19;7.10;77.10
44851;DHT22;30583;48.714;9.386;2024-03-02T03:12:47;6.60;77.70
44851;DHT22;30583;48.714;9.386;2024-03-02T03:15:13;7.00;77.70
44851;DHT22;30583;48.714;9.386;2024-03-02T03:17:39;6.80;76.80
44851;DHT22;30583;48.714;9.386;2024-03-02T03:20:05;6.80;76.90
44851;DHT22;30583;48.714;9.386;2024-03-02T03:22:35;6.50;77.30
44851;DHT22;30583;48.714;9.386;2024-03-02T03:25:01;7.00;77.00
44851;DHT22;30583;48.714;9.386;2024-03-02T03:27:26;7.10;75.80
44851;DHT22;30583;48.714;9.386;2024-03-02T03:29:52;7.20;75.80
44851;DHT22;30583;48.714;9.386;2024-03-02T03:32:18;7.50;74.80
44851;DHT22;30583;48.714;9.386;2024-03-02T03:34:43;7.30;74.20
44851;DHT22;30583;48.714;9.386;2024-03-02T03:37:09;7.20;74.90
44851;DHT22;30583;48.714;9.386;2024-03-02T03:39:35;7.20;74.80
44851;DHT22;30583;48.714;9.386;2024-03-02T03:42:04;7.10;75.00
44851;DHT22;30583;48.714;9.386;2024-03-02T03:44:29;7.10;74.70
44851;DHT22;30583;48.714;9.386;2024-03-02T03:46:55;7.20;74.70
44851;DHT22;30583;48.714;9.386;2024-03-02T03:49:21;7.20;74.10
44851;DHT22;30583;48.714;9.386;2024-03-02T03:51:46;6.80;75.30
44851;DHT22;30583;48.714;9.386;2024-03-02T03:54:12;7.10;75.30
44851;DHT22;30583;48.714;9.386;2024-03-02T03:56:38;7.20;74.60
44851;DHT22;30583;48.714;9.386;2024-03-02T03:59:03;6.70;75.20
44851;DHT22;30583;48.714;9.386;2024-03-02T04:01:30;6.90;74.70
44851;DHT22;30583;48.714;9.386;2024-03-02T04:03:57;6.70;74.80
44851;DHT22;30583;48.714;9.386;2024-03-02T04:06:23;6.40;76.00
44851;DHT22;30583;48.714;9.386;2024-03-02T04:08:48;6.60;75.30
44851;DHT22;30583;48.714;9.386;2024-03-02T04:11:14;6.60;75.70
44851;DHT22;30583;48.714;9.386;2024-03-02T04:13:39;6.80;74.90
44851;DHT22;30583;48.714;9.386;2024-03-02T04:16:05;6.90;74.40
44851;DHT22;30583;48.714;9.386;2024-03-02T04:18:31;6.70;74.30
44851;DHT22;30583;48.714;9.386;2024-03-02T04:21:00;6.90;74.50
44851;DHT22;30583;48.714;9.386;2024-03-02T04:23:29;7.00;73.70
44851;DHT22;30583;48.714;9.386;2024-03-02T04:25:54;6.90;73.70
44851;DHT22;30583;48.714;9.386;2024-03-02T04:28:20;6.90;73.70
44851;DHT22;30583;48.714;9.386;2024-03-02T04:30:45;6.40;75.00
44851;DHT22;30583;48.714;9.386;2024-03-02T04:33:11;6.70;75.20
44851;DHT22;30583;48.714;9.386;2024-03-02T04:35:37;6.80;74.20
44851;DHT22;30583;48.714;9.386;2024-03-02T04:38:03;6.70;74.60
44851;DHT22;30583;48.714;9.386;2024-03-02T04:40:28;6.60;75.20
44851;DHT22;30583;48.714;9.386;2024-03-02T04:42:54;6.60;75.00
44851;DHT22;30583;48.714;9.386;2024-03-02T04:45:19;6.30;75.90
44851;DHT22;30583;48.714;9.386;2024-03-02T04:47:45;6.60;75.30
44851;DHT22;30583;48.714;9.386;2024-03-02T04:50:10;6.70;74.60
44851;DHT22;30583;48.714;9.386;2024-03-02T04:52:36;6.60;74.40
44851;DHT22;30583;48.714;9.386;2024-03-02T04:55:02;6.80;73.90
44851;DHT22;30583;48.714;9.386;2024-03-02T04:57:47;6.80;73.40
44851;DHT22;30583;48.714;9.386;2024-03-02T05:00:13;6.80;73.00
44851;DHT22;30583;48.714;9.386;2024-03-02T05:02:39;6.60;73.80
44851;DHT22;30583;48.714;9.386;2024-03-02T05:05:04;6.60;73.80
44851;DHT22;30583;48.714;9.386;2024-03-02T05:07:30;6.40;74.20
44851;DHT22;30583;48.714;9.386;2024-03-02T05:09:55;6.70;73.70
44851;DHT22;30583;48.714;9.386;2024-03-02T05:12:21;6.70;72.90
44851;DHT22;30583;48.714;9.386;2024-03-02T05:15:06;6.40;74.30
44851;DHT22;30583;48.714;9.386;2024-03-02T05:17:32;6.30;74.40
44851;DHT22;30583;48.714;9.386;2024-03-02T05:19:58;6.20;74.40
44851;DHT22;30583;48.714;9.386;2024-03-02T05:22:24;6.30;74.30
44851;DHT22;30583;48.714;9.386;2024-03-02T05:24:49;6.10;74.70
44851;DHT22;30583;48.714;9.386;2024-03-02T05:27:15;6.30;74.40
44851;DHT22;30583;48.714;9.386;2024-03-02T05:29:40;6.30;74.00
44851;DHT22;30583;48.714;9.386;2024-03-02T05:32:06;6.30;73.90
44851;DHT22;30583;48.714;9.386;2024-03-02T05:34:32;6.30;74.00
44851;DHT22;30583;48.714;9.386;2024-03-02T05:37:00;6.40;73.40
44851;DHT22;30583;48.714;9.386;2024-03-02T05:39:25;6.50;73.30
44851;DHT22;30583;48.714;9.386;2024-03-02T05:41:51;6.30;73.40
44851;DHT22;30583;48.714;9.386;2024-03-02T05:44:17;6.20;74.00
44851;DHT22;30583;48.714;9.386;2024-03-02T05:46:43;6.20;73.90
44851;DHT22;30583;48.714;9.386;2024-03-02T05:49:09;6.30;74.20
44851;DHT22;30583;48.714;9.386;2024-03-02T05:51:35;6.30;73.90
44851;DHT22;30583;48.714;9.386;2024-03-02T05:54:01;6.30;73.80
44851;DHT22;30583;48.714;9.386;2024-03-02T05:56:26;6.40;74.10
44851;DHT22;30583;48.714;9.386;2024-03-02T05:58:52;6.50;73.50
44851;DHT22;30583;48.714;9.386;2024-03-02T06:01:33;6.30;73.70
44851;DHT22;30583;48.714;9.386;2024-03-02T06:03:59;6.40;73.70
44851;DHT22;30583;48.714;9.386;2024-03-02T06:06:25;6.20;73.80
44851;DHT22;30583;48.714;9.386;2024-03-02T06:08:51;6.40;73.90
44851;DHT22;30583;48.714;9.386;2024-03-02T06:11:17;6.30;74.20
44851;DHT22;30583;48.714;9.386;2024-03-02T06:13:44;6.40;73.90
44851;DHT22;30583;48.714;9.386;2024-03-02T06:16:10;6.30;73.60
44851;DHT22;30583;48.714;9.386;2024-03-02T06:18:35;6.50;73.30
44851;DHT22;30583;48.714;9.386;2024-03-02T06:21:01;6.30;73.60
44851;DHT22;30583;48.714;9.386;2024-03-02T06:23:27;5.80;74.50
44851;DHT22;30583;48.714;9.386;2024-03-02T06:25:52;5.70;75.80
44851;DHT22;30583;48.714;9.386;2024-03-02T06:28:18;5.90;75.30
44851;DHT22;30583;48.714;9.386;2024-03-02T06:30:44;6.00;74.20
44851;DHT22;30583;48.714;9.386;2024-03-02T06:33:10;6.20;74.30
44851;DHT22;30583;48.714;9.386;2024-03-02T06:35:36;6.50;75.40
44851;DHT22;30583;48.714;9.386;2024-03-02T06:38:02;6.80;74.60
44851;DHT22;30583;48.714;9.386;2024-03-02T06:40:27;6.90;73.90
44851;DHT22;30583;48.714;9.386;2024-03-02T06:42:53;7.10;72.90
44851;DHT22;30583;48.714;9.386;2024-03-02T06:45:19;7.20;72.30
44851;DHT22;30583;48.714;9.386;2024-03-02T06:47:44;7.00;72.40
44851;DHT22;30583;48.714;9.386;2024-03-02T06:50:10;7.10;72.30
44851;DHT22;30583;48.714;9.386;2024-03-02T06:52:36;7.10;71.70
44851;DHT22;30583;48.714;9.386;2024-03-02T06:55:02;7.00;71.80
44851;DHT22;30583;48.714;9.386;2024-03-02T06:57:27;6.60;72.50
44851;DHT22;30583;48.714;9.386;2024-03-02T06:59:53;6.10;74.00
44851;DHT22;30583;48.714;9.386;2024-03-02T07:02:22;6.20;73.80
44851;DHT22;30583;48.714;9.386;2024-03-02T07:04:48;6.20;74.20
44851;DHT22;30583;48.714;9.386;2024-03-02T07:07:14;6.40;73.70
44851;DHT22;30583;48.714;9.386;2024-03-02T07:09:39;6.20;74.10
44851;DHT22;30583;48.714;9.386;2024-03-02T07:12:05;6.40;73.80
44851;DHT22;30583;48.714;9.386;2024-03-02T07:14:30;6.50;73.70
44851;DHT22;30583;48.714;9.386;2024-03-02T07:17:19;6.60;73.90
44851;DHT22;30583;48.714;9.386;2024-03-02T07:19:45;6.70;73.60
44851;DHT22;30583;48.714;9.386;2024-03-02T07:22:10;6.80;73.10
44851;DHT22;30583;48.714;9.386;2024-03-02T07:24:40;6.70;73.60
44851;DHT22;30583;48.714;9.386;2024-03-02T07:27:07;6.70;74.00
44851;DHT22;30583;48.714;9.386;2024-03-02T07:29:33;6.70;74.30
44851;DHT22;30583;48.714;9.386;2024-03-02T07:31:58;6.60;74.40
44851;DHT22;30583;48.714;9.386;2024-03-02T07:34:24;6.30;75.40
44851;DHT22;30583;48.714;9.386;2024-03-02T07:36:50;6.80;75.20
44851;DHT22;30583;48.714;9.386;2024-03-02T07:39:15;6.50;75.40
44851;DHT22;30583;48.714;9.386;2024-03-02T07:41:41;6.70;75.60
44851;DHT22;30583;48.714;9.386;2024-03-02T07:44:07;7.10;74.80
44851;DHT22;30583;48.714;9.386;2024-03-02T07:46:32;7.20;73.80
44851;DHT22;30583;48.714;9.386;2024-03-02T07:48:58;7.40;73.40
44851;DHT22;30583;48.714;9.386;2024-03-02T07:51:24;7.50;73.30
44851;DHT22;30583;48.714;9.386;2024-03-02T07:53:49;7.50;72.80
44851;DHT22;30583;48.714;9.386;2024-03-02T07:56:15;7.30;73.40
44851;DHT22;30583;48.714;9.386;2024-03-02T07:58:47;6.90;75.10
44851;DHT22;30583;48.714;9.386;2024-03-02T08:01:14;6.40;76.30
44851;DHT22;30583;48.714;9.386;2024-03-02T08:03:40;6.70;76.40
44851;DHT22;30583;48.714;9.386;2024-03-02T08:06:06;6.70;76.90
44851;DHT22;30583;48.714;9.386;2024-03-02T08:08:31;7.30;75.90
44851;DHT22;30583;48.714;9.386;2024-03-02T08:10:57;7.50;75.10
44851;DHT22;30583;48.714;9.386;2024-03-02T08:13:23;7.30;75.00
44851;DHT22;30583;48.714;9.386;2024-03-02T08:15:48;6.90;76.30
44851;DHT22;30583;48.714;9.386;2024-03-02T08:18:14;7.40;76.40
44851;DHT22;30583;48.714;9.386;2024-03-02T08:20:40;7.60;75.60
44851;DHT22;30583;48.714;9.386;2024-03-02T08:23:06;7.70;75.10
44851;DHT22;30583;48.714;9.386;2024-03-02T08:25:32;7.60;75.40
44851;DHT22;30583;48.714;9.386;2024-03-02T08:27:58;7.60;75.40
44851;DHT22;30583;48.714;9.386;2024-03-02T08:30:23;7.60;76.40
44851;DHT22;30583;48.714;9.386;2024-03-02T08:32:49;7.90;75.30
44851;DHT22;30583;48.714;9.386;2024-03-02T08:35:14;7.80;75.50
44851;DHT22;30583;48.714;9.386;2024-03-02T08:37:41;8.00;75.50
44851;DHT22;30583;48.714;9.386;2024-03-02T08:40:08;7.90;75.50
44851;DHT22;30583;48.714;9.386;2024-03-02T08:42:35;7.50;76.70
44851;DHT22;30583;48.714;9.386;2024-03-02T08:45:01;7.70;77.10
44851;DHT22;30583;48.714;9.386;2024-03-02T08:47:27;11.40;82.10
44851;DHT22;30583;48.714;9.386;2024-03-02T08:49:53;15.30;64.80
44851;DHT22;30583;48.714;9.386;2024-03-02T08:52:18;15.70;60.80
44851;DHT22;30583;48.714;9.386;2024-03-02T08:54:44;16.20;56.90
44851;DHT22;30583;48.714;9.386;2024-03-02T08:57:10;16.40;52.50
44851;DHT22;30583;48.714;9.386;2024-03-02T08:59:35;12.30;60.20
44851;DHT22;30583;48.714;9.386;2024-03-02T09:02:01;11.10;64.90
44851;DHT22;30583;48.714;9.386;2024-03-02T09:04:28;10.20;68.00
44851;DHT22;30583;48.714;9.386;2024-03-02T09:06:53;9.80;69.80
44851;DHT22;30583;48.714;9.386;2024-03-02T09:09:19;9.70;70.70
44851;DHT22;30583;48.714;9.386;2024-03-02T09:11:46;9.80;71.00
44851;DHT22;30583;48.714;9.386;2024-03-02T09:14:12;9.80;70.60
44851;DHT22;30583;48.714;9.386;2024-03-02T09:16:37;9.70;71.50
44851;DHT22;30583;48.714;9.386;2024-03-02T09:19:03;9.90;70.70
44851;DHT22;30583;48.714;9.386;2024-03-02T09:21:29;10.10;70.40
44851;DHT22;30583;48.714;9.386;2024-03-02T09:23:55;10.20;69.90
44851;DHT22;30583;48.714;9.386;2024-03-02T09:26:22;10.30;69.20
44851;DHT22;30583;48.714;9.386;2024-03-02T09:28:47;10.50;69.10
44851;DHT22;30583;48.714;9.386;2024-03-02T09:31:13;10.80;67.30
44851;DHT22;30583;48.714;9.386;2024-03-02T09:33:39;10.80;68.10
44851;DHT22;30583;48.714;9.386;2024-03-02T09:36:05;11.10;67.70
44851;DHT22;30583;48.714;9.386;2024-03-02T09:38:32;11.50;66.40
44851;DHT22;30583;48.714;9.386;2024-03-02T09:41:00;12.00;64.70
44851;DHT22;30583;48.714;9.386;2024-03-02T09:43:26;12.20;64.00
44851;DHT22;30583;48.714;9.386;2024-03-02T09:45:52;11.90;64.40
44851;DHT22;30583;48.714;9.386;2024-03-02T09:48:18;12.00;64.10
44851;DHT22;30583;48.714;9.386;2024-03-02T09:50:46;12.00;64.00
44851;DHT22;30583;48.714;9.386;2024-03-02T09:53:12;12.20;62.20
44851;DHT22;30583;48.714;9.386;2024-03-02T09:55:38;12.50;63.40
44851;DHT22;30583;48.714;9.386;2024-03-02T09:58:08;12.90;60.60
44851;DHT22;30583;48.714;9.386;2024-03-02T10:00:33;12.90;60.10
44851;DHT22;30583;48.714;9.386;2024-03-02T10:02:59;13.40;60.30
44851;DHT22;30583;48.714;9.386;2024-03-02T10:05:26;13.40;59.50
44851;DHT22;30583;48.714;9.386;2024-03-02T10:08:02;13.30;58.30
44851;DHT22;30583;48.714;9.386;2024-03-02T10:10:35;13.60;57.60
44851;DHT22;30583;48.714;9.386;2024-03-02T10:13:06;14.10;56.80
44851;DHT22;30583;48.714;9.386;2024-03-02T10:15:32;14.00;58.20
44851;DHT22;30583;48.714;9.386;2024-03-02T10:17:57;14.20;57.50
44851;DHT22;30583;48.714;9.386;2024-03-02T10:20:26;14.70;56.30
44851;DHT22;30583;48.714;9.386;2024-03-02T10:23:16;14.60;54.20
44851;DHT22;30583;48.714;9.386;2024-03-02T10:25:41;14.20;56.00
44851;DHT22;30583;48.714;9.386;2024-03-02T10:28:07;14.50;54.60
44851;DHT22;30583;48.714;9.386;2024-03-02T10:30:33;14.70;53.80
44851;DHT22;30583;48.714;9.386;2024-03-02T10:33:01;14.20;54.60
44851;DHT22;30583;48.714;9.386;2024-03-02T10:35:27;14.50;55.00
44851;DHT22;30583;48.714;9.386;2024-03-02T10:37:53;14.20;55.00
44851;DHT22;30583;48.714;9.386;2024-03-02T10:40:21;14.50;54.90
44851;DHT22;30583;48.714;9.386;2024-03-02T10:42:47;14.80;55.50
44851;DHT22;30583;48.714;9.386;2024-03-02T10:45:15;15.70;53.70
44851;DHT22;30583;48.714;9.386;2024-03-02T10:47:42;16.20;52.60
44851;DHT22;30583;48.714;9.386;2024-03-02T10:50:08;15.70;52.90
44851;DHT22;30583;48.714;9.386;2024-03-02T10:52:38;16.10;52.40
44851;DHT22;30583;48.714;9.386;2024-03-02T10:55:09;16.20;52.60
44851;DHT22;30583;48.714;9.386;2024-03-02T10:57:54;16.70;51.50
44851;DHT22;30583;48.714;9.386;2024-03-02T11:00:24;16.20;50.40
44851;DHT22;30583;48.714;9.386;2024-03-02T11:03:04;16.60;51.20
44851;DHT22;30583;48.714;9.386;2024-03-02T11:05:38;16.60;49.40
44851;DHT22;30583;48.714;9.386;2024-03-02T11:08:07;16.90;51.00
44851;DHT22;30583;48.714;9.386;2024-03-02T11:10:37;17.10;50.80
44851;DHT22;30583;48.714;9.386;2024-03-02T11:13:05;17.20;49.80
44851;DHT22;30583;48.714;9.386;2024-03-02T11:15:34;17.70;49.70
44851;DHT22;30583;48.714;9.386;2024-03-02T11:18:05;17.70;48.90
44851;DHT22;30583;48.714;9.386;2024-03-02T11:20:36;17.80;48.10
44851;DHT22;30583;48.714;9.386;2024-03-02T11:23:09;17.90;48.10
44851;DHT22;30583;48.714;9.386;2024-03-02T11:25:36;17.70;46.60
44851;DHT22;30583;48.714;9.386;2024-03-02T11:28:03;17.40;47.90
44851;DHT22;30583;48.714;9.386;2024-03-02T11:33:01;17.60;46.70
44851;DHT22;30583;48.714;9.386;2024-03-02T11:35:51;17.90;45.70
44851;DHT22;30583;48.714;9.386;2024-03-02T11:38:18;18.10;44.90
44851;DHT22;30583;48.714;9.386;2024-03-02T11:40:44;17.90;44.50
44851;DHT22;30583;48.714;9.386;2024-03-02T11:43:11;18.40;43.60
44851;DHT22;30583;48.714;9.386;2024-03-02T11:45:36;17.70;44.20
44851;DHT22;30583;48.714;9.386;2024-03-02T11:48:06;17.20;45.80
44851;DHT22;30583;48.714;9.386;2024-03-02T11:50:36;17.30;46.40
44851;DHT22;30583;48.714;9.386;2024-03-02T11:53:09;17.80;46.00
44851;DHT22;30583;48.714;9.386;2024-03-02T11:55:36;17.20;45.50
44851;DHT22;30583;48.714;9.386;2024-03-02T11:58:03;18.10;47.10
44851;DHT22;30583;48.714;9.386;2024-03-02T12:00:29;18.80;44.60
44851;DHT22;30583;48.714;9.386;2024-03-02T12:03:06;19.00;45.60
44851;DHT22;30583;48.714;9.386;2024-03-02T12:05:32;18.80;43.20
44851;DHT22;30583;48.714;9.386;2024-03-02T12:07:59;18.20;45.40
44851;DHT22;30583;48.714;9.386;2024-03-02T12:10:26;17.70;45.70
44851;DHT22;30583;48.714;9.386;2024-03-02T12:13:03;18.80;45.00
44851;DHT22;30583;48.714;9.386;2024-03-02T12:15:33;18.70;43.40
44851;DHT22;30583;48.714;9.386;2024-03-02T12:18:01;18.20;44.80
44851;DHT22;30583;48.714;9.386;2024-03-02T12:20:28;18.90;44.50
44851;DHT22;30583;48.714;9.386;2024-03-02T12:22:56;19.10;42.60
44851;DHT22;30583;48.714;9.386;2024-03-02T12:25:23;17.70;44.00
44851;DHT22;30583;48.714;9.386;2024-03-02T12:27:55;18.40;44.40
44851;DHT22;30583;48.714;9.386;2024-03-02T12:30:22;18.90;44.60
44851;DHT22;30583;48.714;9.386;2024-03-02T12:32:48;18.00;43.50
44851;DHT22;30583;48.714;9.386;2024-03-02T12:35:14;18.80;43.50
44851;DHT22;30583;48.714;9.386;2024-03-02T12:37:51;19.30;43.40
44851;DHT22;30583;48.714;9.386;2024-03-02T12:40:18;18.90;42.50
44851;DHT22;30583;48.714;9.386;2024-03-02T12:42:47;19.10;40.40
44851;DHT22;30583;48.714;9.386;2024-03-02T12:45:13;19.50;42.50
44851;DHT22;30583;48.714;9.386;2024-03-02T12:47:40;18.30;42.20
44851;DHT22;30583;48.714;9.386;2024-03-02T12:50:07;19.40;41.30
44851;DHT22;30583;48.714;9.386;2024-03-02T12:52:33;20.00;40.40
44851;DHT22;30583;48.714;9.386;2024-03-02T12:55:04;19.70;38.10
44851;DHT22;30583;48.714;9.386;2024-03-02T12:57:31;20.10;39.30
44851;DHT22;30583;48.714;9.386;2024-03-02T13:00:02;20.30;38.20
44851;DHT22;30583;48.714;9.386;2024-03-02T13:02:35;21.00;37.60
44851;DHT22;30583;48.714;9.386;2024-03-02T13:05:00;21.40;35.50
44851;DHT22;30583;48.714;9.386;2024-03-02T13:07:26;19.70;36.90
44851;DHT22;30583;48.714;9.386;2024-03-02T13:09:53;20.80;36.10
44851;DHT22;30583;48.714;9.386;2024-03-02T13:12:21;21.10;36.50
44851;DHT22;30583;48.714;9.386;2024-03-02T13:14:53;21.20;35.90
44851;DHT22;30583;48.714;9.386;2024-03-02T13:17:19;21.30;34.90
44851;DHT22;30583;48.714;9.386;2024-03-02T13:22:18;20.80;36.00
44851;DHT22;30583;48.714;9.386;2024-03-02T13:24:44;20.80;34.70
44851;DHT22;30583;48.714;9.386;2024-03-02T13:27:10;21.30;35.40
44851;DHT22;30583;48.714;9.386;2024-03-02T13:29:35;22.30;32.50
44851;DHT22;30583;48.714;9.386;2024-03-02T13:32:01;21.60;33.30
44851;DHT22;30583;48.714;9.386;2024-03-02T13:34:26;22.20;33.60
44851;DHT22;30583;48.714;9.386;2024-03-02T13:36:52;22.90;32.10
44851;DHT22;30583;48.714;9.386;2024-03-02T13:39:17;22.90;32.00
44851;DHT22;30583;48.714;9.386;2024-03-02T13:41:44;22.70;31.20
44851;DHT22;30583;48.714;9.386;2024-03-02T13:44:17;22.00;33.60
44851;DHT22;30583;48.714;9.386;2024-03-02T13:46:43;21.00;33.50
44851;DHT22;30583;48.714;9.386;2024-03-02T13:49:11;20.60;33.90
44851;DHT22;30583;48.714;9.386;2024-03-02T13:51:37;21.20;33.90
44851;DHT22;30583;48.714;9.386;2024-03-02T13:54:02;20.90;34.60
44851;DHT22;30583;48.714;9.386;2024-03-02T13:56:29;21.40;33.70
44851;DHT22;30583;48.714;9.386;2024-03-02T13:58:55;21.70;31.30
44851;DHT22;30583;48.714;9.386;2024-03-02T14:01:20;20.60;34.50
44851;DHT22;30583;48.714;9.386;2024-03-02T14:03:46;20.50;34.00
44851;DHT22;30583;48.714;9.386;2024-03-02T14:06:12;22.20;32.60
44851;DHT22;30583;48.714;9.386;2024-03-02T14:08:38;22.70;31.90
44851;DHT22;30583;48.714;9.386;2024-03-02T14:11:03;22.20;31.80
44851;DHT22;30583;48.714;9.386;2024-03-02T14:13:29;21.60;31.40
44851;DHT22;30583;48.714;9.386;2024-03-02T14:15:54;22.10;30.40
44851;DHT22;30583;48.714;9.386;2024-03-02T14:18:20;22.20;30.90
44851;DHT22;30583;48.714;9.386;2024-03-02T14:20:49;22.60;30.00
44851;DHT22;30583;48.714;9.386;2024-03-02T14:23:18;21.60;31.20
44851;DHT22;30583;48.714;9.386;2024-03-02T14:25:45;22.50;31.10
44851;DHT22;30583;48.714;9.386;2024-03-02T14:28:10;21.40;31.70
44851;DHT22;30583;48.714;9.386;2024-03-02T14:30:37;22.20;31.00
44851;DHT22;30583;48.714;9.386;2024-03-02T14:33:03;21.80;29.80
44851;DHT22;30583;48.714;9.386;2024-03-02T14:35:28;21.00;32.30
44851;DHT22;30583;48.714;9.386;2024-03-02T14:37:54;20.60;32.10
44851;DHT22;30583;48.714;9.386;2024-03-02T14:40:20;20.70;32.50
44851;DHT22;30583;48.714;9.386;2024-03-02T14:42:47;21.20;31.90
44851;DHT22;30583;48.714;9.386;2024-03-02T14:45:14;20.50;32.30
44851;DHT22;30583;48.714;9.386;2024-03-02T14:47:39;19.50;33.30
44851;DHT22;30583;48.714;9.386;2024-03-02T14:50:05;19.80;34.30
44851;DHT22;30583;48.714;9.386;2024-03-02T14:52:35;20.70;34.00
44851;DHT22;30583;48.714;9.386;2024-03-02T14:55:01;21.10;32.00
44851;DHT22;30583;48.714;9.386;2024-03-02T14:57:29;20.10;34.30
44851;DHT22;30583;48.714;9.386;2024-03-02T14:59:55;18.80;35.20
44851;DHT22;30583;48.714;9.386;2024-03-02T15:02:20;18.40;37.50
44851;DHT22;30583;48.714;9.386;2024-03-02T15:04:47;19.90;35.20
44851;DHT22;30583;48.714;9.386;2024-03-02T15:07:13;18.40;36.70
44851;DHT22;30583;48.714;9.386;2024-03-02T15:09:39;19.10;41.00
44851;DHT22;30583;48.714;9.386;2024-03-02T15:12:05;20.90;35.50
44851;DHT22;30583;48.714;9.386;2024-03-02T15:14:31;19.40;40.00
44851;DHT22;30583;48.714;9.386;2024-03-02T15:16:57;20.20;39.70
44851;DHT22;30583;48.714;9.386;2024-03-02T15:19:23;20.60;38.40
44851;DHT22;30583;48.714;9.386;2024-03-02T15:21:49;21.70;35.90
44851;DHT22;30583;48.714;9.386;2024-03-02T15:24:14;21.00;37.80
44851;DHT22;30583;48.714;9.386;2024-03-02T15:26:40;19.60;37.30
44851;DHT22;30583;48.714;9.386;2024-03-02T15:29:05;18.20;42.10
44851;DHT22;30583;48.714;9.386;2024-03-02T15:31:31;20.30;39.40
44851;DHT22;30583;48.714;9.386;2024-03-02T15:33:56;20.30;37.90
44851;DHT22;30583;48.714;9.386;2024-03-02T15:36:23;20.60;38.70
44851;DHT22;30583;48.714;9.386;2024-03-02T15:38:49;20.70;38.90
44851;DHT22;30583;48.714;9.386;2024-03-02T15:41:15;20.70;38.60
44851;DHT22;30583;48.714;9.386;2024-03-02T15:43:40;20.60;38.10
44851;DHT22;30583;48.714;9.386;2024-03-02T15:46:08;18.30;41.10
44851;DHT22;30583;48.714;9.386;2024-03-02T15:48:33;18.40;41.70